Terminal Aerodrome Forecast
Issued by NWS Twin Cities, MN

Home | Current Version | Previous Version | Graphics & Text | Print | Product List | Glossary On
Versions: 1 2 3 4 5 6 7 8 9 10 11 12 13 14 15 16 17 18 19
000
FTUS43 KMPX 120500
TAFEAU
TAF
KEAU 120524Z 1206/1306 18004KT P6SM BKN035
     FM120900 VRB02KT 6SM BR BKN015
     FM121000 VRB02KT 5SM BR OVC015
     FM121300 23003KT 6SM HZ BKN010
     FM121500 29004KT P6SM BKN035 BKN120
     FM121800 27007KT P6SM -SHRA BKN040 OVC100
     FM130000 27006KT P6SM SCT050 BKN120=

USA.gov is the U.S. government's official web portal to all federal, state and local government web resources and services.